Disclaimer

Please do not use the information listed here in-flight or in-navigation, as they are not provided to us by the airports but are provided by volunteers, so they might be outdated.

Search


Regions


Airport information page

Radio informations:
Tower (TWR) - 134.15 MHz
Approach (APP) - 123.625 MHz

Airport informations:
Latitude: 55° 02' 34.00" N
Longitude: 007° 09' 40.00" W
Elevation: 22 feet - 7 meters
Operating hours: Remarks
Operating agency: Civil government, landing fees and diplomatic clearance may be required
Timezone: UTC 0(+1DT) - Last Sunday in March to last Sunday in October
Fuel: Jet A1, without icing nhibitor.

100/130 MIL Spec, low lead, aviation gasoline (BLUE)

Runway information:
02/20 - 3955 x 148 feet< - >1205 x 45 meters
08/26 - 6076 x 147 feet< - >1852 x 45 meters

Recent METARs:
EGAE 151750Z 13018KT 7000 -SHRA FEW010 BKN029 BKN049 08/07 Q0981
EGAE 151820Z 13019KT 9000 -SHRA FEW010 BKN031 BKN049 08/07 Q0981 RESHRA
EGAE 151850Z 13019KT 7000 3000N SHRA SCT010 BKN031 BKN049 08/07 Q0981 RESHRA

Airport on the map: